createdAt,value
2023-01-08T00:00:20.056Z,999.18
2023-01-08T00:01:19.978Z,999.18
2023-01-08T00:02:19.976Z,999.19
2023-01-08T00:03:20.046Z,999.13
2023-01-08T00:04:19.907Z,999.14
2023-01-08T00:05:19.886Z,999.07
2023-01-08T00:06:19.858Z,999.04
2023-01-08T00:07:19.830Z,999.10
2023-01-08T00:08:19.819Z,999.11
2023-01-08T00:09:19.819Z,999.05
2023-01-08T00:10:19.761Z,999.12
2023-01-08T00:11:19.738Z,999.06
2023-01-08T00:12:19.707Z,999.05
2023-01-08T00:13:19.683Z,999.07
2023-01-08T00:14:19.664Z,999.06
2023-01-08T00:15:19.652Z,999.07
2023-01-08T00:16:19.655Z,999.07
2023-01-08T00:17:19.587Z,999.06
2023-01-08T00:18:19.563Z,999.03
2023-01-08T00:19:19.536Z,999.08
2023-01-08T00:20:19.509Z,999.04
2023-01-08T00:21:19.483Z,999.06
2023-01-08T00:22:19.464Z,999.04
2023-01-08T00:23:19.456Z,999.06
2023-01-08T00:24:19.412Z,999.03
2023-01-08T00:25:19.512Z,999.04
2023-01-08T00:26:19.361Z,999.05
2023-01-08T00:27:19.331Z,999.02
2023-01-08T00:28:19.309Z,999.01
2023-01-08T00:29:19.285Z,999.03
2023-01-08T00:30:19.268Z,999.03
2023-01-08T00:31:19.257Z,998.98
2023-01-08T00:32:19.213Z,998.97
2023-01-08T00:33:19.189Z,998.93
2023-01-08T00:34:19.163Z,998.92
2023-01-08T00:35:19.164Z,998.92
2023-01-08T00:36:19.116Z,998.90
2023-01-08T00:37:19.095Z,998.88
2023-01-08T00:38:19.069Z,998.89
2023-01-08T00:39:19.037Z,998.91
2023-01-08T00:40:19.020Z,998.80
2023-01-08T00:41:19.121Z,998.86
2023-01-08T00:42:18.966Z,998.80
2023-01-08T00:43:18.940Z,998.81
2023-01-08T00:44:18.930Z,998.81
2023-01-08T00:45:18.888Z,998.78
2023-01-08T00:46:18.908Z,998.81
2023-01-08T00:47:18.853Z,998.81
2023-01-08T00:48:18.820Z,998.89
2023-01-08T00:49:18.790Z,998.81
2023-01-08T00:50:18.766Z,998.80
2023-01-08T00:51:18.745Z,998.82
2023-01-08T00:52:18.730Z,998.87
2023-01-08T00:53:18.693Z,998.88
2023-01-08T00:54:18.673Z,998.83
2023-01-08T00:55:18.636Z,998.85
2023-01-08T00:56:18.628Z,998.83
2023-01-08T00:57:18.705Z,998.87
2023-01-08T00:58:18.569Z,998.85
2023-01-08T00:59:18.550Z,998.88
2023-01-08T01:00:18.522Z,998.78
2023-01-08T01:01:18.613Z,998.78
2023-01-08T01:02:18.540Z,998.78
2023-01-08T01:03:18.451Z,998.83
2023-01-08T01:04:18.527Z,998.81
2023-01-08T01:05:18.400Z,998.79
2023-01-08T01:06:18.380Z,998.80
2023-01-08T01:07:18.344Z,998.78
2023-01-08T01:08:18.327Z,998.82
2023-01-08T01:09:18.304Z,998.80
2023-01-08T01:10:18.275Z,998.80
2023-01-08T01:11:18.255Z,998.79
2023-01-08T01:12:18.228Z,998.78
2023-01-08T01:13:18.322Z,998.77
2023-01-08T01:14:18.176Z,998.76
2023-01-08T01:15:18.151Z,998.76
2023-01-08T01:16:18.213Z,998.72
2023-01-08T01:17:18.116Z,998.77
2023-01-08T01:18:18.082Z,998.77
2023-01-08T01:19:18.051Z,998.73
2023-01-08T01:20:18.023Z,998.73
2023-01-08T01:21:18.014Z,998.73
2023-01-08T01:22:17.977Z,998.75
2023-01-08T01:23:17.953Z,998.71
2023-01-08T01:24:17.932Z,998.74
2023-01-08T01:25:17.904Z,998.77
2023-01-08T01:26:17.894Z,998.72
2023-01-08T01:27:17.848Z,998.71
2023-01-08T01:28:17.832Z,998.61
2023-01-08T01:29:17.915Z,998.57
2023-01-08T01:30:17.782Z,998.53
2023-01-08T01:31:17.842Z,998.54
2023-01-08T01:32:17.728Z,998.54
2023-01-08T01:33:17.711Z,998.54
2023-01-08T01:34:17.679Z,998.60
2023-01-08T01:35:17.668Z,998.53
2023-01-08T01:36:17.643Z,998.55
2023-01-08T01:37:17.605Z,998.52
2023-01-08T01:38:17.584Z,998.56
2023-01-08T01:39:17.556Z,998.62
2023-01-08T01:40:17.540Z,998.60
2023-01-08T01:41:17.504Z,998.69
2023-01-08T01:42:17.485Z,998.74
2023-01-08T01:43:17.457Z,998.68
2023-01-08T01:44:17.431Z,998.65
2023-01-08T01:45:17.522Z,998.66
2023-01-08T01:46:17.468Z,998.64
2023-01-08T01:47:17.364Z,998.61
2023-01-08T01:48:17.346Z,998.58
2023-01-08T01:49:17.317Z,998.65
2023-01-08T01:50:17.293Z,998.72
2023-01-08T01:51:17.267Z,998.79
2023-01-08T01:52:17.238Z,998.81
2023-01-08T01:53:17.217Z,998.88
2023-01-08T01:54:17.196Z,998.86
2023-01-08T01:55:17.165Z,998.86
2023-01-08T01:56:17.148Z,998.71
2023-01-08T01:57:17.135Z,998.62
2023-01-08T01:58:17.099Z,998.56
2023-01-08T01:59:17.066Z,998.54
2023-01-08T02:00:17.038Z,998.54
2023-01-08T02:01:17.324Z,998.57
2023-01-08T02:02:17.267Z,998.62
2023-01-08T02:03:16.962Z,998.68
2023-01-08T02:04:16.981Z,998.70
2023-01-08T02:05:16.921Z,998.75
2023-01-08T02:06:16.886Z,998.75
2023-01-08T02:07:16.874Z,998.69
2023-01-08T02:08:16.856Z,998.72
2023-01-08T02:09:16.818Z,998.66
2023-01-08T02:10:16.792Z,998.68
2023-01-08T02:11:16.765Z,998.59
2023-01-08T02:12:16.757Z,998.54
2023-01-08T02:13:16.723Z,998.51
2023-01-08T02:14:16.694Z,998.51
2023-01-08T02:15:16.675Z,998.55
2023-01-08T02:16:16.698Z,998.60
2023-01-08T02:17:16.745Z,998.65
2023-01-08T02:18:16.601Z,998.68
2023-01-08T02:19:16.574Z,998.68
2023-01-08T02:20:16.562Z,998.72
2023-01-08T02:21:16.523Z,998.73
2023-01-08T02:22:16.497Z,998.75
2023-01-08T02:23:16.471Z,998.69
2023-01-08T02:24:16.440Z,998.76
2023-01-08T02:25:16.464Z,998.73
2023-01-08T02:26:16.399Z,998.69
2023-01-08T02:27:16.371Z,998.68
2023-01-08T02:28:16.343Z,998.70
2023-01-08T02:29:16.318Z,998.63
2023-01-08T02:30:16.302Z,998.64
2023-01-08T02:31:16.391Z,998.63
2023-01-08T02:32:16.244Z,998.64
2023-01-08T02:33:16.348Z,998.59
2023-01-08T02:34:16.197Z,998.65
2023-01-08T02:35:16.175Z,998.64
2023-01-08T02:36:16.160Z,998.59
2023-01-08T02:37:16.128Z,998.56
2023-01-08T02:38:16.100Z,998.52
2023-01-08T02:39:16.069Z,998.48
2023-01-08T02:40:16.051Z,998.48
2023-01-08T02:41:16.033Z,998.47
2023-01-08T02:42:16.005Z,998.38
2023-01-08T02:43:15.977Z,998.46
2023-01-08T02:44:15.943Z,998.44
2023-01-08T02:45:15.931Z,998.50
2023-01-08T02:46:15.972Z,998.43
2023-01-08T02:47:15.884Z,998.45
2023-01-08T02:48:15.857Z,998.42
2023-01-08T02:49:15.949Z,998.40
2023-01-08T02:50:15.798Z,998.39
2023-01-08T02:51:15.785Z,998.30
2023-01-08T02:52:15.747Z,998.24
2023-01-08T02:53:15.737Z,998.27
2023-01-08T02:54:15.702Z,998.19
2023-01-08T02:55:15.679Z,998.22
2023-01-08T02:56:15.653Z,998.16
2023-01-08T02:57:15.634Z,998.16
2023-01-08T02:58:15.603Z,998.16
2023-01-08T02:59:15.583Z,998.14
2023-01-08T03:00:15.553Z,998.12
2023-01-08T03:01:15.712Z,998.13
2023-01-08T03:02:15.645Z,998.11
2023-01-08T03:03:15.486Z,998.16
2023-01-08T03:04:15.522Z,998.12
2023-01-08T03:05:15.551Z,998.08
2023-01-08T03:06:15.420Z,998.05
2023-01-08T03:07:15.385Z,998.10
2023-01-08T03:08:15.368Z,998.07
2023-01-08T03:09:15.330Z,998.05
2023-01-08T03:10:15.303Z,998.02
2023-01-08T03:11:15.280Z,998.02
2023-01-08T03:12:15.250Z,998.02
2023-01-08T03:13:15.244Z,997.99
2023-01-08T03:14:15.203Z,997.97
2023-01-08T03:15:15.185Z,997.99
2023-01-08T03:16:15.238Z,997.96
2023-01-08T03:17:15.130Z,997.95
2023-01-08T03:18:15.105Z,997.88
2023-01-08T03:19:15.504Z,997.88
2023-01-08T03:20:15.052Z,997.83
2023-01-08T03:21:15.151Z,997.81
2023-01-08T03:22:15.007Z,997.82
2023-01-08T03:23:14.983Z,997.77
2023-01-08T03:24:14.963Z,997.82
2023-01-08T03:25:14.932Z,997.75
2023-01-08T03:26:14.912Z,997.71
2023-01-08T03:27:14.883Z,997.72
2023-01-08T03:28:14.863Z,997.69
2023-01-08T03:29:14.841Z,997.69
2023-01-08T03:30:14.812Z,997.66
2023-01-08T03:31:14.858Z,997.66
2023-01-08T03:32:14.761Z,997.65
2023-01-08T03:33:14.741Z,997.62
2023-01-08T03:34:14.718Z,997.65
2023-01-08T03:35:14.696Z,997.63
2023-01-08T03:36:14.666Z,997.61
2023-01-08T03:37:14.764Z,997.56
2023-01-08T03:38:14.622Z,997.57
2023-01-08T03:39:14.607Z,997.54
2023-01-08T03:40:14.562Z,997.54
2023-01-08T03:41:14.552Z,997.51
2023-01-08T03:42:14.515Z,997.51
2023-01-08T03:43:14.504Z,997.48
2023-01-08T03:44:14.464Z,997.48
2023-01-08T03:45:14.442Z,997.47
2023-01-08T03:46:14.461Z,997.44
2023-01-08T03:47:14.394Z,997.41
2023-01-08T03:48:14.375Z,997.45
2023-01-08T03:49:14.343Z,997.46
2023-01-08T03:50:14.320Z,997.43
2023-01-08T03:51:14.309Z,997.46
2023-01-08T03:52:14.265Z,997.43
2023-01-08T03:53:14.363Z,997.45
2023-01-08T03:54:14.218Z,997.45
2023-01-08T03:55:14.192Z,997.48
2023-01-08T03:56:14.172Z,997.49
2023-01-08T03:57:14.151Z,997.43
2023-01-08T03:58:14.146Z,997.44
2023-01-08T03:59:14.101Z,997.37
2023-01-08T04:00:14.077Z,997.40
2023-01-08T04:01:14.210Z,997.39
2023-01-08T04:02:14.164Z,997.36
2023-01-08T04:03:13.999Z,997.35
2023-01-08T04:04:14.076Z,997.26
2023-01-08T04:05:13.949Z,997.28
2023-01-08T04:06:13.921Z,997.33
2023-01-08T04:07:13.909Z,997.37
2023-01-08T04:08:13.869Z,997.34
2023-01-08T04:09:13.987Z,997.35
2023-01-08T04:10:13.819Z,997.34
2023-01-08T04:11:13.806Z,997.37
2023-01-08T04:12:13.778Z,997.36
2023-01-08T04:13:13.755Z,997.35
2023-01-08T04:14:13.718Z,997.35
2023-01-08T04:15:13.704Z,997.40
2023-01-08T04:16:13.708Z,997.32
2023-01-08T04:17:13.647Z,997.40
2023-01-08T04:18:13.624Z,997.35
2023-01-08T04:19:13.605Z,997.33
2023-01-08T04:20:13.612Z,997.35
2023-01-08T04:21:13.562Z,997.29
2023-01-08T04:22:13.532Z,997.34
2023-01-08T04:23:13.514Z,997.32
2023-01-08T04:24:13.483Z,997.31
2023-01-08T04:25:13.576Z,997.30
2023-01-08T04:26:13.424Z,997.28
2023-01-08T04:27:13.400Z,997.29
2023-01-08T04:28:13.389Z,997.25
2023-01-08T04:29:13.349Z,997.17
2023-01-08T04:30:13.334Z,997.20
2023-01-08T04:31:13.393Z,997.21
2023-01-08T04:32:13.289Z,997.19
2023-01-08T04:33:13.256Z,997.20
2023-01-08T04:34:13.236Z,997.22
2023-01-08T04:35:13.207Z,997.20
2023-01-08T04:36:13.182Z,997.26
2023-01-08T04:37:13.157Z,997.24
2023-01-08T04:38:13.128Z,997.29
2023-01-08T04:39:13.108Z,997.27
2023-01-08T04:40:13.079Z,997.27
2023-01-08T04:41:13.180Z,997.24
2023-01-08T04:42:13.031Z,997.23
2023-01-08T04:43:13.019Z,997.25
2023-01-08T04:44:12.979Z,997.23
2023-01-08T04:45:12.957Z,997.18
2023-01-08T04:46:12.968Z,997.21
2023-01-08T04:47:12.908Z,997.18
2023-01-08T04:48:12.883Z,997.18
2023-01-08T04:49:12.855Z,997.16
2023-01-08T04:50:12.830Z,997.13
2023-01-08T04:51:12.816Z,997.13
2023-01-08T04:52:12.784Z,997.11
2023-01-08T04:53:12.764Z,997.10
2023-01-08T04:54:12.730Z,997.09
2023-01-08T04:55:12.710Z,997.09
2023-01-08T04:56:12.686Z,997.07
2023-01-08T04:57:12.773Z,997.05
2023-01-08T04:58:12.633Z,997.03
2023-01-08T04:59:12.616Z,997.03
2023-01-08T05:00:12.584Z,997.02
2023-01-08T05:01:12.700Z,997.03
2023-01-08T05:02:12.868Z,997.03
2023-01-08T05:03:12.554Z,997.00
2023-01-08T05:04:12.487Z,996.94
2023-01-08T05:05:12.465Z,996.98
2023-01-08T05:06:12.438Z,997.01
2023-01-08T05:07:12.411Z,996.97
2023-01-08T05:08:12.389Z,996.98
2023-01-08T05:09:12.366Z,996.98
2023-01-08T05:10:12.336Z,996.96
2023-01-08T05:11:12.313Z,996.94
2023-01-08T05:12:12.291Z,996.96
2023-01-08T05:13:12.408Z,996.94
2023-01-08T05:14:12.239Z,996.94
2023-01-08T05:15:12.223Z,996.95
2023-01-08T05:16:12.262Z,996.96
2023-01-08T05:17:12.175Z,996.96
2023-01-08T05:18:12.137Z,996.97
2023-01-08T05:19:12.115Z,996.92
2023-01-08T05:20:12.091Z,996.93
2023-01-08T05:21:12.073Z,996.91
2023-01-08T05:22:12.065Z,996.90
2023-01-08T05:23:12.023Z,996.91
2023-01-08T05:24:12.023Z,996.85
2023-01-08T05:25:11.977Z,996.88
2023-01-08T05:26:11.946Z,996.89
2023-01-08T05:27:11.919Z,996.87
2023-01-08T05:28:11.892Z,996.85
2023-01-08T05:29:11.983Z,996.86
2023-01-08T05:30:11.841Z,996.79
2023-01-08T05:31:11.986Z,996.82
2023-01-08T05:32:11.790Z,996.77
2023-01-08T05:33:11.773Z,996.77
2023-01-08T05:34:11.745Z,996.73
2023-01-08T05:35:11.724Z,996.78
2023-01-08T05:36:11.701Z,996.72
2023-01-08T05:37:11.674Z,996.79
2023-01-08T05:38:11.639Z,996.78
2023-01-08T05:39:11.616Z,996.77
2023-01-08T05:40:11.596Z,996.82
2023-01-08T05:41:11.568Z,996.83
2023-01-08T05:42:11.540Z,996.84
2023-01-08T05:43:11.529Z,996.82
2023-01-08T05:44:11.495Z,996.77
2023-01-08T05:45:11.592Z,996.87
2023-01-08T05:46:11.563Z,996.84
2023-01-08T05:47:11.425Z,996.85
2023-01-08T05:48:11.392Z,996.85
2023-01-08T05:49:11.374Z,996.85
2023-01-08T05:50:11.345Z,996.85
2023-01-08T05:51:11.331Z,996.86
2023-01-08T05:52:11.293Z,996.88
2023-01-08T05:53:11.273Z,996.90
2023-01-08T05:54:11.252Z,996.89
2023-01-08T05:55:11.221Z,996.92
2023-01-08T05:56:11.198Z,996.90
2023-01-08T05:57:11.176Z,996.84
2023-01-08T05:58:11.162Z,996.85
2023-01-08T05:59:11.121Z,996.88
2023-01-08T06:00:11.100Z,996.79
2023-01-08T06:01:11.294Z,996.75
2023-01-08T06:02:11.055Z,996.77
2023-01-08T06:03:11.087Z,996.74
2023-01-08T06:04:11.077Z,996.75
2023-01-08T06:05:10.973Z,996.72
2023-01-08T06:06:10.949Z,996.71
2023-01-08T06:07:10.931Z,996.71
2023-01-08T06:08:10.908Z,996.71
2023-01-08T06:09:10.898Z,996.69
2023-01-08T06:10:10.852Z,996.71
2023-01-08T06:11:10.823Z,996.74
2023-01-08T06:12:10.802Z,996.70
2023-01-08T06:13:10.773Z,996.74
2023-01-08T06:14:10.756Z,996.76
2023-01-08T06:15:10.724Z,996.67
2023-01-08T06:16:10.763Z,996.68
2023-01-08T06:17:10.800Z,996.71
2023-01-08T06:18:10.653Z,996.69
2023-01-08T06:19:10.628Z,996.70
2023-01-08T06:20:10.606Z,996.72
2023-01-08T06:21:10.575Z,996.74
2023-01-08T06:22:10.551Z,996.78
2023-01-08T06:23:10.532Z,996.80
2023-01-08T06:24:10.509Z,996.74
2023-01-08T06:25:10.475Z,996.74
2023-01-08T06:26:10.460Z,996.72
2023-01-08T06:27:10.426Z,996.74
2023-01-08T06:28:10.402Z,996.70
2023-01-08T06:29:10.381Z,996.74
2023-01-08T06:30:10.356Z,996.75
2023-01-08T06:31:10.393Z,996.76
2023-01-08T06:32:10.305Z,996.73
2023-01-08T06:33:10.463Z,996.77
2023-01-08T06:34:10.261Z,996.78
2023-01-08T06:35:10.235Z,996.78
2023-01-08T06:36:10.203Z,996.78
2023-01-08T06:37:10.174Z,996.76
2023-01-08T06:38:10.151Z,996.77
2023-01-08T06:39:10.134Z,996.73
2023-01-08T06:40:10.103Z,996.71
2023-01-08T06:41:10.077Z,996.72
2023-01-08T06:42:10.062Z,996.70
2023-01-08T06:43:10.026Z,996.70
2023-01-08T06:44:10.012Z,996.72
2023-01-08T06:45:09.976Z,996.73
2023-01-08T06:46:10.035Z,996.80
2023-01-08T06:47:09.925Z,996.75
2023-01-08T06:48:09.924Z,996.75
2023-01-08T06:49:10.012Z,996.75
2023-01-08T06:50:09.863Z,996.71
2023-01-08T06:51:09.827Z,996.72
2023-01-08T06:52:09.805Z,996.73
2023-01-08T06:53:09.778Z,996.67
2023-01-08T06:54:10.727Z,996.69
2023-01-08T06:55:09.723Z,996.68
2023-01-08T06:56:09.717Z,996.70
2023-01-08T06:57:09.678Z,996.74
2023-01-08T06:58:09.668Z,996.73
2023-01-08T06:59:09.627Z,996.73
2023-01-08T07:00:09.605Z,996.72
2023-01-08T07:01:09.612Z,996.69
2023-01-08T07:02:09.698Z,996.73
2023-01-08T07:03:09.606Z,996.68
2023-01-08T07:04:09.520Z,996.68
2023-01-08T07:05:09.606Z,996.72
2023-01-08T07:06:09.463Z,996.70
2023-01-08T07:07:09.437Z,996.65
2023-01-08T07:08:09.409Z,996.72
2023-01-08T07:09:09.386Z,996.72
2023-01-08T07:10:09.359Z,996.72
2023-01-08T07:11:09.332Z,996.76
2023-01-08T07:12:09.311Z,996.78
2023-01-08T07:13:09.284Z,996.78
2023-01-08T07:14:09.291Z,996.78
2023-01-08T07:15:09.231Z,996.79
2023-01-08T07:16:09.431Z,996.82
2023-01-08T07:17:09.187Z,996.83
2023-01-08T07:18:09.160Z,996.89
2023-01-08T07:19:09.247Z,996.93
2023-01-08T07:20:09.115Z,996.95
2023-01-08T07:21:09.228Z,996.97
2023-01-08T07:22:09.058Z,997.00
2023-01-08T07:23:09.033Z,997.09
2023-01-08T07:24:09.014Z,997.02
2023-01-08T07:25:08.984Z,997.12
2023-01-08T07:26:08.960Z,997.19
2023-01-08T07:27:08.935Z,997.06
2023-01-08T07:28:08.912Z,996.95
2023-01-08T07:29:08.908Z,997.16
2023-01-08T07:30:18.019Z,997.21
2023-01-08T07:31:08.899Z,997.19
2023-01-08T07:32:08.815Z,997.18
2023-01-08T07:33:08.782Z,997.17
2023-01-08T07:34:08.765Z,997.15
2023-01-08T07:35:08.737Z,997.19
2023-01-08T07:36:08.732Z,997.21
2023-01-08T07:37:08.802Z,997.21
2023-01-08T07:38:08.664Z,997.18
2023-01-08T07:39:08.630Z,997.31
2023-01-08T07:40:08.612Z,997.25
2023-01-08T07:41:08.575Z,997.17
2023-01-08T07:42:08.562Z,997.19
2023-01-08T07:43:08.529Z,997.20
2023-01-08T07:44:08.515Z,997.32
2023-01-08T07:45:08.477Z,997.28
2023-01-08T07:46:08.486Z,997.32
2023-01-08T07:47:08.427Z,997.32
2023-01-08T07:48:08.409Z,997.35
2023-01-08T07:49:08.381Z,997.39
2023-01-08T07:50:08.359Z,997.37
2023-01-08T07:51:08.338Z,997.34
2023-01-08T07:52:08.304Z,997.36
2023-01-08T07:53:08.396Z,997.33
2023-01-08T07:54:08.253Z,997.40
2023-01-08T07:55:08.230Z,997.44
2023-01-08T07:56:08.216Z,997.49
2023-01-08T07:57:08.176Z,997.49
2023-01-08T07:58:08.153Z,997.49
2023-01-08T07:59:08.120Z,997.40
2023-01-08T08:00:08.103Z,997.36
2023-01-08T08:01:08.107Z,997.34
2023-01-08T08:02:08.186Z,997.35
2023-01-08T08:03:08.079Z,997.33
2023-01-08T08:04:08.012Z,997.30
2023-01-08T08:05:07.968Z,997.33
2023-01-08T08:06:07.966Z,997.30
2023-01-08T08:07:07.931Z,997.26
2023-01-08T08:08:07.900Z,997.22
2023-01-08T08:09:07.995Z,997.20
2023-01-08T08:10:07.839Z,997.21
2023-01-08T08:11:07.821Z,997.19
2023-01-08T08:12:07.804Z,997.20
2023-01-08T08:13:07.779Z,997.16
2023-01-08T08:14:07.747Z,997.13
2023-01-08T08:15:07.720Z,997.06
2023-01-08T08:16:07.727Z,997.03
2023-01-08T08:17:07.665Z,997.00
2023-01-08T08:18:07.643Z,996.95
2023-01-08T08:19:07.616Z,996.95
2023-01-08T08:20:07.617Z,996.98
2023-01-08T08:21:07.574Z,997.03
2023-01-08T08:22:07.556Z,997.10
2023-01-08T08:23:07.515Z,997.09
2023-01-08T08:24:07.497Z,997.09
2023-01-08T08:25:07.596Z,997.11
2023-01-08T08:26:07.444Z,997.11
2023-01-08T08:27:07.415Z,997.13
2023-01-08T08:28:07.392Z,997.13
2023-01-08T08:29:07.367Z,997.20
2023-01-08T08:30:07.339Z,997.15
2023-01-08T08:31:07.319Z,997.22
2023-01-08T08:32:07.309Z,997.24
2023-01-08T08:33:07.266Z,997.24
2023-01-08T08:34:07.245Z,997.23
2023-01-08T08:35:07.215Z,997.24
2023-01-08T08:36:07.200Z,997.29
2023-01-08T08:37:07.168Z,997.26
2023-01-08T08:38:07.148Z,997.25
2023-01-08T08:39:07.117Z,997.21
2023-01-08T08:40:07.099Z,997.16
2023-01-08T08:41:07.177Z,997.17
2023-01-08T08:42:07.037Z,997.10
2023-01-08T08:43:07.010Z,997.12
2023-01-08T08:44:06.986Z,997.10
2023-01-08T08:45:06.961Z,997.10
2023-01-08T08:46:06.940Z,997.07
2023-01-08T08:47:06.920Z,997.08
2023-01-08T08:48:06.893Z,997.05
2023-01-08T08:49:06.863Z,997.06
2023-01-08T08:50:06.837Z,997.02
2023-01-08T08:51:06.817Z,997.04
2023-01-08T08:52:06.802Z,996.98
2023-01-08T08:53:06.832Z,996.99
2023-01-08T08:54:06.738Z,997.00
2023-01-08T08:55:06.710Z,996.99
2023-01-08T08:56:06.697Z,997.03
2023-01-08T08:57:06.777Z,997.03
2023-01-08T08:58:06.640Z,997.02
2023-01-08T08:59:06.609Z,997.04
2023-01-08T09:00:06.582Z,997.05
2023-01-08T09:01:06.557Z,997.00
2023-01-08T09:02:06.722Z,996.99
2023-01-08T09:03:06.620Z,997.00
2023-01-08T09:04:06.482Z,996.96
2023-01-08T09:05:06.460Z,996.95
2023-01-08T09:06:06.434Z,996.96
2023-01-08T09:07:06.409Z,996.93
2023-01-08T09:08:06.380Z,996.98
2023-01-08T09:09:06.350Z,996.91
2023-01-08T09:10:06.336Z,996.93
2023-01-08T09:11:06.300Z,996.96
2023-01-08T09:12:06.287Z,996.99
2023-01-08T09:13:06.378Z,997.00
2023-01-08T09:14:06.230Z,997.01
2023-01-08T09:15:06.206Z,997.04
2023-01-08T09:16:06.255Z,997.04
2023-01-08T09:17:06.149Z,997.02
2023-01-08T09:18:06.159Z,997.00
2023-01-08T09:19:06.099Z,997.07
2023-01-08T09:20:06.082Z,997.10
2023-01-08T09:21:06.073Z,997.06
2023-01-08T09:22:06.029Z,997.03
2023-01-08T09:23:05.996Z,997.02
2023-01-08T09:24:05.975Z,997.06
2023-01-08T09:25:05.946Z,997.02
2023-01-08T09:26:05.933Z,997.01
2023-01-08T09:27:05.907Z,997.03
2023-01-08T09:28:05.934Z,996.99
2023-01-08T09:29:05.989Z,997.01
2023-01-08T09:30:05.834Z,996.96
2023-01-08T09:31:05.848Z,996.98
2023-01-08T09:32:05.788Z,997.00
2023-01-08T09:33:05.743Z,996.99
2023-01-08T09:34:05.719Z,997.03
2023-01-08T09:35:05.703Z,996.97
2023-01-08T09:36:05.679Z,997.01
2023-01-08T09:37:05.646Z,997.03
2023-01-08T09:38:05.619Z,997.03
2023-01-08T09:39:05.591Z,997.02
2023-01-08T09:40:05.575Z,997.00
2023-01-08T09:41:05.547Z,996.99
2023-01-08T09:42:05.517Z,997.02
2023-01-08T09:43:05.504Z,997.03
2023-01-08T09:44:05.478Z,997.01
2023-01-08T09:45:05.557Z,996.99
2023-01-08T09:46:05.451Z,996.99
2023-01-08T09:47:05.538Z,997.01
2023-01-08T09:48:05.368Z,997.03
2023-01-08T09:49:05.336Z,997.05
2023-01-08T09:50:05.319Z,997.03
2023-01-08T09:51:05.296Z,997.04
2023-01-08T09:52:05.278Z,997.04
2023-01-08T09:53:05.243Z,997.05
2023-01-08T09:54:05.215Z,997.07
2023-01-08T09:55:05.186Z,997.04
2023-01-08T09:56:10.174Z,997.02
2023-01-08T09:57:05.141Z,997.02
2023-01-08T09:58:05.114Z,997.02
2023-01-08T09:59:05.109Z,996.99
2023-01-08T10:00:05.072Z,997.01
2023-01-08T10:01:05.275Z,996.96
2023-01-08T10:02:05.205Z,996.92
2023-01-08T10:03:05.049Z,996.99
2023-01-08T10:04:04.968Z,996.95
2023-01-08T10:05:04.931Z,996.93
2023-01-08T10:06:04.913Z,996.86
2023-01-08T10:07:04.887Z,996.87
2023-01-08T10:08:04.863Z,996.88
2023-01-08T10:09:07.566Z,996.82
2023-01-08T10:10:04.810Z,996.84
2023-01-08T10:11:04.783Z,996.82
2023-01-08T10:12:04.761Z,996.85
2023-01-08T10:13:04.748Z,996.84
2023-01-08T10:14:04.709Z,996.80
2023-01-08T10:15:04.682Z,996.78
2023-01-08T10:16:04.734Z,996.79
2023-01-08T10:17:04.959Z,996.75
2023-01-08T10:18:04.604Z,996.76
2023-01-08T10:19:04.584Z,996.72
2023-01-08T10:20:04.564Z,996.72
2023-01-08T10:21:04.558Z,996.70
2023-01-08T10:22:04.502Z,996.64
2023-01-08T10:23:04.488Z,996.65
2023-01-08T10:24:04.511Z,996.72
2023-01-08T10:25:04.435Z,996.70
2023-01-08T10:26:04.408Z,996.73
2023-01-08T10:27:04.407Z,996.70
2023-01-08T10:28:04.350Z,996.68
2023-01-08T10:29:04.333Z,996.69
2023-01-08T10:30:04.301Z,996.70
2023-01-08T10:31:04.342Z,996.70
2023-01-08T10:32:04.251Z,996.65
2023-01-08T10:33:04.250Z,996.69
2023-01-08T10:34:04.201Z,996.65
2023-01-08T10:35:04.172Z,996.63
2023-01-08T10:36:04.163Z,996.66
2023-01-08T10:37:04.124Z,996.63
2023-01-08T10:38:04.104Z,996.67
2023-01-08T10:39:04.076Z,996.62
2023-01-08T10:40:04.047Z,996.63
2023-01-08T10:41:04.024Z,996.66
2023-01-08T10:42:03.995Z,996.69
2023-01-08T10:43:03.980Z,996.66
2023-01-08T10:44:03.953Z,996.65
2023-01-08T10:45:06.848Z,996.62
2023-01-08T10:46:03.953Z,996.62
2023-01-08T10:47:03.873Z,996.60
2023-01-08T10:48:03.846Z,996.62
2023-01-08T10:49:03.943Z,996.61
2023-01-08T10:50:03.802Z,996.59
2023-01-08T10:51:05.096Z,996.58
2023-01-08T10:52:03.756Z,996.52
2023-01-08T10:53:03.725Z,996.54
2023-01-08T10:54:03.694Z,996.53
2023-01-08T10:55:03.672Z,996.47
2023-01-08T10:56:03.652Z,996.45
2023-01-08T10:57:03.623Z,996.42
2023-01-08T10:58:03.594Z,996.41
2023-01-08T10:59:03.573Z,996.36
2023-01-08T11:00:03.546Z,996.34
2023-01-08T11:01:03.622Z,996.29
2023-01-08T11:02:03.607Z,996.33
2023-01-08T11:03:03.472Z,996.29
2023-01-08T11:04:03.448Z,996.28
2023-01-08T11:05:03.442Z,996.27
2023-01-08T11:06:03.393Z,996.31
2023-01-08T11:07:03.382Z,996.26
2023-01-08T11:08:03.341Z,996.26
2023-01-08T11:09:03.321Z,996.27
2023-01-08T11:10:03.295Z,996.21
2023-01-08T11:11:03.271Z,996.20
2023-01-08T11:12:03.240Z,996.23
2023-01-08T11:13:03.226Z,996.12
2023-01-08T11:14:03.199Z,996.17
2023-01-08T11:15:03.179Z,996.12
2023-01-08T11:16:03.199Z,996.10
2023-01-08T11:17:03.124Z,996.08
2023-01-08T11:18:03.088Z,996.04
2023-01-08T11:19:03.071Z,996.08
2023-01-08T11:20:03.040Z,996.03
2023-01-08T11:21:03.050Z,996.03
2023-01-08T11:22:02.997Z,996.02
2023-01-08T11:23:02.974Z,996.02
2023-01-08T11:24:02.956Z,996.06
2023-01-08T11:25:02.919Z,995.99
2023-01-08T11:26:02.900Z,995.94
2023-01-08T11:27:02.879Z,995.95
2023-01-08T11:28:02.845Z,995.93
2023-01-08T11:29:02.824Z,995.93
2023-01-08T11:30:02.802Z,995.89
2023-01-08T11:31:02.783Z,995.84
2023-01-08T11:32:02.746Z,995.82
2023-01-08T11:33:02.727Z,995.81
2023-01-08T11:34:02.692Z,995.80
2023-01-08T11:35:02.675Z,995.82
2023-01-08T11:36:02.647Z,995.80
2023-01-08T11:37:02.649Z,995.79
2023-01-08T11:38:02.594Z,995.76
2023-01-08T11:39:02.580Z,995.75
2023-01-08T11:40:02.557Z,995.76
2023-01-08T11:41:02.525Z,995.74
2023-01-08T11:42:02.502Z,995.70
2023-01-08T11:43:02.477Z,995.73
2023-01-08T11:44:02.451Z,995.69
2023-01-08T11:45:02.426Z,995.67
2023-01-08T11:46:02.471Z,995.65
2023-01-08T11:47:02.382Z,995.56
2023-01-08T11:48:02.354Z,995.56
2023-01-08T11:49:02.331Z,995.52
2023-01-08T11:50:02.306Z,995.52
2023-01-08T11:51:02.281Z,995.46
2023-01-08T11:52:02.254Z,995.43
2023-01-08T11:53:02.378Z,995.48
2023-01-08T11:54:02.202Z,995.46
2023-01-08T11:55:02.177Z,995.50
2023-01-08T11:56:02.150Z,995.42
2023-01-08T11:57:02.131Z,995.41
2023-01-08T11:58:02.105Z,995.40
2023-01-08T11:59:02.088Z,995.40
2023-01-08T12:00:02.058Z,995.36
2023-01-08T12:01:02.030Z,995.39
2023-01-08T12:02:02.155Z,995.38
2023-01-08T12:03:02.096Z,995.33
2023-01-08T12:04:01.955Z,995.32
2023-01-08T12:05:01.933Z,995.33
2023-01-08T12:06:01.906Z,995.28
2023-01-08T12:07:01.879Z,995.26
2023-01-08T12:08:01.860Z,995.28
2023-01-08T12:09:01.858Z,995.30
2023-01-08T12:10:01.816Z,995.29
2023-01-08T12:11:01.782Z,995.25
2023-01-08T12:12:01.759Z,995.26
2023-01-08T12:13:01.735Z,995.21
2023-01-08T12:14:01.703Z,995.24
2023-01-08T12:15:01.707Z,995.24
2023-01-08T12:16:01.696Z,995.16
2023-01-08T12:17:01.652Z,995.14
2023-01-08T12:18:01.648Z,995.11
2023-01-08T12:19:01.590Z,995.12
2023-01-08T12:20:01.563Z,995.04
2023-01-08T12:21:01.539Z,994.99
2023-01-08T12:22:01.510Z,995.00
2023-01-08T12:23:01.493Z,994.99
2023-01-08T12:24:01.464Z,994.95
2023-01-08T12:25:01.463Z,994.95
2023-01-08T12:26:01.413Z,994.94
2023-01-08T12:27:01.398Z,994.90
2023-01-08T12:28:01.374Z,994.84